createdAt,value
2024-02-12T00:01:42.004Z,98821.31
2024-02-12T00:04:08.625Z,98813.13
2024-02-12T00:06:36.394Z,98818.16
2024-02-12T00:09:06.554Z,98817.78
2024-02-12T00:11:33.217Z,98820.50
2024-02-12T00:14:01.200Z,98819.72
2024-02-12T00:16:27.672Z,98817.75
2024-02-12T00:18:54.180Z,98821.66
2024-02-12T00:21:20.758Z,98816.22
2024-02-12T00:23:47.791Z,98818.50
2024-02-12T00:26:15.294Z,98829.38
2024-02-12T00:28:42.601Z,98823.53
2024-02-12T00:31:13.635Z,98816.91
2024-02-12T00:33:41.642Z,98827.44
2024-02-12T00:36:10.478Z,98823.53
2024-02-12T00:38:40.693Z,98828.59
2024-02-12T00:41:15.726Z,98828.97
2024-02-12T00:43:43.433Z,98830.13
2024-02-12T00:46:10.303Z,98828.94
2024-02-12T00:48:37.708Z,98832.47
2024-02-12T00:51:04.322Z,98832.44
2024-02-12T00:53:30.942Z,98830.88
2024-02-12T00:55:58.796Z,98837.53
2024-02-12T00:58:25.345Z,98835.53
2024-02-12T01:00:51.729Z,98837.88
2024-02-12T01:03:18.338Z,98836.34
2024-02-12T01:05:45.111Z,98839.09
2024-02-12T01:08:11.637Z,98844.91
2024-02-12T01:10:38.108Z,98839.47
2024-02-12T01:13:04.560Z,98844.91
2024-02-12T01:15:31.946Z,98847.22
2024-02-12T01:18:09.472Z,98845.69
2024-02-12T01:20:37.785Z,98848.44
2024-02-12T01:23:04.608Z,98837.84
2024-02-12T01:25:31.885Z,98850.72
2024-02-12T01:28:01.244Z,98854.22
2024-02-12T01:30:28.088Z,98847.97
2024-02-12T01:32:55.264Z,98843.69
2024-02-12T01:35:21.937Z,98849.16
2024-02-12T01:37:48.366Z,98850.28
2024-02-12T01:40:15.016Z,98851.81
2024-02-12T01:42:41.548Z,98846.41
2024-02-12T01:45:16.941Z,98852.22
2024-02-12T01:47:45.311Z,98847.53
2024-02-12T01:50:13.450Z,98849.94
2024-02-12T01:52:50.847Z,98853.81
2024-02-12T01:55:19.597Z,98860.44
2024-02-12T01:57:51.430Z,98860.44
2024-02-12T02:00:18.906Z,98862.38
2024-02-12T02:02:46.041Z,98862.00
2024-02-12T02:05:17.165Z,98868.25
2024-02-12T02:07:46.055Z,98867.16
2024-02-12T02:10:16.065Z,98867.97
2024-02-12T02:12:43.830Z,98869.53
2024-02-12T02:15:10.804Z,98871.03
2024-02-12T02:17:37.493Z,98855.81
2024-02-12T02:20:08.238Z,98864.03
2024-02-12T02:22:35.492Z,98858.97
2024-02-12T02:25:01.898Z,98861.31
2024-02-12T02:27:28.779Z,98857.78
2024-02-12T02:29:55.210Z,98854.66
2024-02-12T02:32:23.006Z,98865.53
2024-02-12T02:34:49.608Z,98859.72
2024-02-12T02:37:16.856Z,98866.38
2024-02-12T02:39:43.246Z,98857.03
2024-02-12T02:42:12.732Z,98870.25
2024-02-12T02:44:40.201Z,98868.31
2024-02-12T02:47:07.092Z,98868.34
2024-02-12T02:49:33.768Z,98857.44
2024-02-12T02:52:00.247Z,98866.38
2024-02-12T02:54:26.621Z,98873.84
2024-02-12T02:56:53.403Z,98869.16
2024-02-12T02:59:20.056Z,98869.13
2024-02-12T03:01:46.595Z,98876.88
2024-02-12T03:04:15.444Z,98869.47
2024-02-12T03:06:42.266Z,98858.25
2024-02-12T03:09:08.823Z,98869.88
2024-02-12T03:11:38.822Z,98865.31
2024-02-12T03:14:05.456Z,98865.28
2024-02-12T03:16:33.730Z,98873.84
2024-02-12T03:19:01.193Z,98871.50
2024-02-12T03:21:27.770Z,98872.31
2024-02-12T03:23:58.262Z,98880.06
2024-02-12T03:26:24.710Z,98878.16
2024-02-12T03:28:52.171Z,98878.91
2024-02-12T03:31:18.605Z,98884.72
2024-02-12T03:33:50.207Z,98886.31
2024-02-12T03:36:17.126Z,98887.13
2024-02-12T03:38:43.590Z,98892.97
2024-02-12T03:41:18.043Z,98891.78
2024-02-12T03:43:44.496Z,98890.63
2024-02-12T03:46:19.190Z,98895.66
2024-02-12T03:49:04.868Z,98894.19
2024-02-12T03:51:50.336Z,98898.03
2024-02-12T03:57:23.612Z,98900.34
2024-02-12T03:59:52.711Z,98904.22
2024-02-12T04:02:20.079Z,98905.84
2024-02-12T04:04:46.744Z,98910.16
2024-02-12T04:07:14.395Z,98912.03
2024-02-12T04:09:43.051Z,98913.63
2024-02-12T04:12:14.444Z,98915.50
2024-02-12T04:14:43.311Z,98919.81
2024-02-12T04:17:10.977Z,98917.13
2024-02-12T04:19:38.078Z,98917.13
2024-02-12T04:22:10.797Z,98919.03
2024-02-12T04:24:44.517Z,98917.47
2024-02-12T04:27:11.538Z,98928.88
2024-02-12T04:29:41.233Z,98922.22
2024-02-12T04:32:13.670Z,98929.63
2024-02-12T04:34:41.780Z,98931.19
2024-02-12T04:37:10.770Z,98929.56
2024-02-12T04:39:37.945Z,98939.34
2024-02-12T04:42:05.304Z,98938.06
2024-02-12T04:44:32.109Z,98943.91
2024-02-12T04:47:01.909Z,98942.34
2024-02-12T04:49:29.022Z,98946.22
2024-02-12T04:51:55.714Z,98946.25
2024-02-12T04:54:24.333Z,98953.31
2024-02-12T04:56:50.989Z,98945.13
2024-02-12T04:59:19.579Z,98954.94
2024-02-12T05:01:46.605Z,98958.91
2024-02-12T05:04:13.196Z,98956.97
2024-02-12T05:06:39.707Z,98964.38
2024-02-12T05:09:06.795Z,98964.72
2024-02-12T05:11:33.556Z,98962.41
2024-02-12T05:14:00.193Z,98972.19
2024-02-12T05:16:33.624Z,98965.09
2024-02-12T05:19:19.775Z,98966.72
2024-02-12T05:22:05.080Z,98969.09
2024-02-12T05:24:32.048Z,98974.94
2024-02-12T05:26:59.102Z,98972.97
2024-02-12T05:29:26.544Z,98974.94
2024-02-12T05:31:53.224Z,98971.44
2024-02-12T05:34:24.541Z,98976.88
2024-02-12T05:36:56.078Z,98980.41
2024-02-12T05:39:23.161Z,98983.88
2024-02-12T05:41:50.062Z,98975.34
2024-02-12T05:44:17.221Z,98987.06
2024-02-12T05:46:43.694Z,98987.09
2024-02-12T05:49:13.985Z,98989.78
2024-02-12T05:51:40.600Z,98999.19
2024-02-12T05:54:07.161Z,98996.78
2024-02-12T05:56:35.383Z,98996.00
2024-02-12T05:59:01.818Z,99009.66
2024-02-12T06:01:28.284Z,99018.72
2024-02-12T06:03:54.804Z,99013.97
2024-02-12T06:06:22.080Z,99006.59
2024-02-12T06:08:49.468Z,99018.72
2024-02-12T06:11:16.069Z,99025.69
2024-02-12T06:13:42.503Z,99021.41
2024-02-12T06:16:08.963Z,99026.91
2024-02-12T06:18:35.442Z,99034.69
2024-02-12T06:21:01.896Z,99030.75
2024-02-12T06:23:28.561Z,99037.06
2024-02-12T06:25:55.139Z,99039.41
2024-02-12T06:28:21.547Z,99046.00
2024-02-12T06:30:48.011Z,99050.69
2024-02-12T06:33:14.739Z,99050.22
2024-02-12T06:35:41.194Z,99055.78
2024-02-12T06:38:07.766Z,99058.84
2024-02-12T06:40:34.323Z,99059.56
2024-02-12T06:43:02.858Z,99059.63
2024-02-12T06:45:29.368Z,99068.97
2024-02-12T06:47:56.557Z,99070.88
2024-02-12T06:50:24.335Z,99080.72
2024-02-12T06:52:50.946Z,99083.09
2024-02-12T06:55:17.473Z,99085.44
2024-02-12T06:57:46.503Z,99086.97
2024-02-12T07:00:17.038Z,99097.88
2024-02-12T07:02:47.938Z,99094.78
2024-02-12T07:05:18.881Z,99092.75
2024-02-12T07:07:46.946Z,99091.50
2024-02-12T07:10:13.752Z,99099.38
2024-02-12T07:12:40.398Z,99103.72
2024-02-12T07:15:08.277Z,99104.81
2024-02-12T07:17:35.772Z,99105.22
2024-02-12T07:20:10.467Z,99116.97
2024-02-12T07:22:39.818Z,99113.88
2024-02-12T07:25:06.773Z,99118.16
2024-02-12T07:27:33.227Z,99123.94
2024-02-12T07:30:00.085Z,99124.38
2024-02-12T07:32:26.586Z,99127.47
2024-02-12T07:34:53.654Z,99137.63
2024-02-12T07:37:20.329Z,99136.13
2024-02-12T07:39:46.765Z,99141.16
2024-02-12T07:42:13.260Z,99151.31
2024-02-12T07:44:40.532Z,99146.25
2024-02-12T07:47:07.228Z,99142.34
2024-02-12T07:49:34.319Z,99149.03
2024-02-12T07:52:03.629Z,99151.38
2024-02-12T07:54:31.336Z,99156.06
2024-02-12T07:56:58.586Z,99162.69
2024-02-12T07:59:25.230Z,99165.38
2024-02-12T08:01:53.021Z,99172.44
2024-02-12T08:04:22.761Z,99164.09
2024-02-12T08:06:49.295Z,99179.03
2024-02-12T08:09:19.228Z,99184.13
2024-02-12T08:11:46.645Z,99179.78
2024-02-12T08:14:13.577Z,99182.94
2024-02-12T08:16:45.046Z,99184.59
2024-02-12T08:19:11.889Z,99191.69
2024-02-12T08:21:38.401Z,99193.63
2024-02-12T08:24:05.228Z,99193.28
2024-02-12T08:26:32.188Z,99195.63
2024-02-12T08:28:59.753Z,99203.78
2024-02-12T08:31:26.432Z,99204.22
2024-02-12T08:33:55.328Z,99210.09
2024-02-12T08:36:22.060Z,99211.31
2024-02-12T08:38:48.608Z,99212.44
2024-02-12T08:41:25.806Z,99217.47
2024-02-12T08:43:54.545Z,99215.41
2024-02-12T08:46:21.064Z,99213.19
2024-02-12T08:48:47.554Z,99219.41
2024-02-12T08:51:15.003Z,99219.88
2024-02-12T08:53:45.063Z,99223.38
2024-02-12T08:56:15.612Z,99228.44
2024-02-12T08:58:43.750Z,99230.44
2024-02-12T09:01:11.233Z,99232.41
2024-02-12T09:03:42.097Z,99229.34
2024-02-12T09:06:17.951Z,99238.34
2024-02-12T09:08:45.632Z,99242.66
2024-02-12T09:11:13.670Z,99241.81
2024-02-12T09:13:41.459Z,99244.16
2024-02-12T09:16:09.336Z,99255.56
2024-02-12T09:18:36.924Z,99249.63
2024-02-12T09:21:03.915Z,99247.75
2024-02-12T09:23:31.227Z,99245.34
2024-02-12T09:25:57.858Z,99262.16
2024-02-12T09:28:28.676Z,99255.19
2024-02-12T09:30:55.996Z,99259.47
2024-02-12T09:33:22.619Z,99270.50
2024-02-12T09:35:49.271Z,99268.47
2024-02-12T09:38:17.022Z,99266.50
2024-02-12T09:40:44.086Z,99271.66
2024-02-12T09:43:12.499Z,99279.50
2024-02-12T09:45:45.991Z,99279.63
2024-02-12T09:48:13.884Z,99286.25
2024-02-12T09:50:47.815Z,99297.63
2024-02-12T09:53:17.110Z,99299.19
2024-02-12T09:55:50.083Z,99296.03
2024-02-12T09:58:17.237Z,99304.22
2024-02-12T10:00:45.244Z,99298.00
2024-02-12T10:03:14.969Z,99308.16
2024-02-12T10:05:43.364Z,99315.09
2024-02-12T10:08:24.205Z,99317.88
2024-02-12T10:10:53.427Z,99313.59
2024-02-12T10:13:20.947Z,99326.50
2024-02-12T10:15:48.549Z,99322.59
2024-02-12T10:18:18.010Z,99324.59
2024-02-12T10:20:44.949Z,99324.22
2024-02-12T10:23:16.439Z,99328.91
2024-02-12T10:25:49.742Z,99334.44
2024-02-12T10:28:17.125Z,99329.34
2024-02-12T10:30:44.093Z,99337.19
2024-02-12T10:33:12.087Z,99350.81
2024-02-12T10:35:40.753Z,99343.47
2024-02-12T10:38:08.204Z,99341.06
2024-02-12T10:41:02.974Z,99340.69
2024-02-12T10:43:31.570Z,99341.38
2024-02-12T10:45:59.179Z,99342.28
2024-02-12T10:48:26.204Z,99337.56
2024-02-12T10:50:55.933Z,99342.22
2024-02-12T10:53:24.666Z,99343.75
2024-02-12T10:55:51.421Z,99347.41
2024-02-12T10:58:19.276Z,99349.34
2024-02-12T11:01:03.925Z,99350.13
2024-02-12T11:03:50.305Z,99343.13
2024-02-12T11:06:18.560Z,99347.38
2024-02-12T11:08:51.026Z,99351.69
2024-02-12T11:11:24.321Z,99356.75
2024-02-12T11:13:57.849Z,99358.84
2024-02-12T11:16:24.460Z,99372.56
2024-02-12T11:18:55.633Z,99367.16
2024-02-12T11:21:24.187Z,99370.69
2024-02-12T11:23:53.069Z,99374.91
2024-02-12T11:26:22.050Z,99368.69
2024-02-12T11:28:56.073Z,99374.53
2024-02-12T11:31:25.334Z,99369.84
2024-02-12T11:33:52.524Z,99367.53
2024-02-12T11:36:19.087Z,99379.59
2024-02-12T11:38:48.426Z,99375.41
2024-02-12T11:41:16.668Z,99385.50
2024-02-12T11:43:43.998Z,99382.47
2024-02-12T11:46:17.028Z,99399.72
2024-02-12T11:48:43.971Z,99389.53
2024-02-12T11:51:10.573Z,99406.78
2024-02-12T11:53:42.876Z,99411.06
2024-02-12T11:56:09.494Z,99413.81
2024-02-12T11:58:36.076Z,99421.25
2024-02-12T12:01:02.672Z,99419.31
2024-02-12T12:03:29.416Z,99430.22
2024-02-12T12:05:56.344Z,99432.63
2024-02-12T12:08:29.225Z,99433.03
2024-02-12T12:11:05.032Z,99439.72
2024-02-12T12:13:32.525Z,99441.28
2024-02-12T12:15:58.980Z,99444.34
2024-02-12T12:18:26.149Z,99449.41
2024-02-12T12:20:56.256Z,99454.91
2024-02-12T12:23:23.330Z,99456.91
2024-02-12T12:25:53.509Z,99473.31
2024-02-12T12:28:20.074Z,99470.56
2024-02-12T12:30:46.533Z,99478.78
2024-02-12T12:33:13.064Z,99486.66
2024-02-12T12:35:40.717Z,99487.41
2024-02-12T12:38:11.230Z,99499.19
2024-02-12T12:40:37.756Z,99490.91
2024-02-12T12:43:05.286Z,99493.06
2024-02-12T12:45:32.579Z,99507.25
2024-02-12T12:47:59.089Z,99501.25
2024-02-12T12:50:26.106Z,99521.59
2024-02-12T12:52:52.552Z,99509.84
2024-02-12T12:55:19.150Z,99505.09
2024-02-12T12:57:45.841Z,99506.72
2024-02-12T13:00:29.871Z,99516.03
2024-02-12T13:02:59.330Z,99509.78
2024-02-12T13:05:26.332Z,99520.72
2024-02-12T13:08:17.747Z,99519.19
2024-02-12T13:10:47.431Z,99520.25
2024-02-12T13:13:16.394Z,99522.56
2024-02-12T13:15:47.546Z,99510.06
2024-02-12T13:18:18.878Z,99510.53
2024-02-12T13:20:47.453Z,99514.84
2024-02-12T13:23:15.000Z,99521.81
2024-02-12T13:25:41.665Z,99512.75
2024-02-12T13:28:12.572Z,99516.28
2024-02-12T13:30:39.496Z,99522.44
2024-02-12T13:33:08.781Z,99526.91
2024-02-12T13:35:38.856Z,99525.34
2024-02-12T13:38:06.165Z,99529.63
2024-02-12T13:40:33.904Z,99534.03
2024-02-12T13:43:05.274Z,99540.63
2024-02-12T13:45:32.885Z,99539.13
2024-02-12T13:47:59.455Z,99549.75
2024-02-12T13:50:27.460Z,99550.88
2024-02-12T13:52:54.165Z,99566.53
2024-02-12T13:55:21.763Z,99567.75
2024-02-12T13:57:50.068Z,99565.81
2024-02-12T14:00:42.908Z,99569.75
2024-02-12T14:03:06.890Z,99572.44
2024-02-12T14:05:33.844Z,99583.47
2024-02-12T14:08:00.897Z,99595.66
2024-02-12T14:10:27.842Z,99587.34
2024-02-12T14:12:55.102Z,99599.97
2024-02-12T14:16:01.749Z,99601.50
2024-02-12T14:18:10.459Z,99602.38
2024-02-12T14:20:37.414Z,99607.03
2024-02-12T14:23:06.604Z,99611.28
2024-02-12T14:25:35.146Z,99617.25
2024-02-12T14:28:03.346Z,99621.56
2024-02-12T14:30:30.101Z,99620.41
2024-02-12T14:32:57.215Z,99623.53
2024-02-12T14:35:25.684Z,99631.34
2024-02-12T14:37:54.397Z,99640.84
2024-02-12T14:40:21.696Z,99635.81
2024-02-12T14:42:50.859Z,99637.78
2024-02-12T14:45:17.614Z,99646.75
2024-02-12T14:47:45.735Z,99635.06
2024-02-12T14:50:19.501Z,99647.19
2024-02-12T14:52:46.340Z,99648.38
2024-02-12T14:55:12.916Z,99648.84
2024-02-12T14:57:40.581Z,99655.06
2024-02-12T15:00:14.742Z,99658.56
2024-02-12T15:02:45.422Z,99660.44
2024-02-12T15:05:16.411Z,99666.72
2024-02-12T15:07:47.653Z,99664.25
2024-02-12T15:10:22.288Z,99667.31
2024-02-12T15:12:49.334Z,99673.50
2024-02-12T15:15:20.206Z,99678.22
2024-02-12T15:17:55.031Z,99683.63
2024-02-12T15:20:22.833Z,99686.47
2024-02-12T15:22:51.209Z,99690.56
2024-02-12T15:25:20.548Z,99695.25
2024-02-12T15:27:48.506Z,99687.69
2024-02-12T15:30:16.665Z,99687.69
2024-02-12T15:32:43.460Z,99696.56
2024-02-12T15:35:15.805Z,99697.72
2024-02-12T15:37:45.434Z,99704.00
2024-02-12T15:40:21.936Z,99704.31
2024-02-12T15:42:51.404Z,99708.25
2024-02-12T15:45:19.695Z,99714.06
2024-02-12T15:47:47.716Z,99706.56
2024-02-12T15:50:16.151Z,99706.97
2024-02-12T15:52:45.496Z,99716.38
2024-02-12T15:55:12.305Z,99715.97
2024-02-12T15:57:39.436Z,99720.53
2024-02-12T16:00:13.661Z,99722.16
2024-02-12T16:02:40.557Z,99731.41
2024-02-12T16:05:45.997Z,99728.63
2024-02-12T16:08:14.261Z,99732.50
2024-02-12T16:10:41.428Z,99731.75
2024-02-12T16:13:09.756Z,99740.66
2024-02-12T16:15:39.053Z,99751.47
2024-02-12T16:18:06.092Z,99756.88
2024-02-12T16:20:32.790Z,99770.47
2024-02-12T16:22:59.263Z,99772.38
2024-02-12T16:25:27.699Z,99777.03
2024-02-12T16:27:54.845Z,99771.88
2024-02-12T16:30:21.210Z,99778.50
2024-02-12T16:32:49.125Z,99785.53
2024-02-12T16:35:19.282Z,99791.00
2024-02-12T16:37:47.953Z,99799.47
2024-02-12T16:40:14.564Z,99794.75
2024-02-12T16:42:43.226Z,99805.59
2024-02-12T16:45:11.012Z,99804.84
2024-02-12T16:47:40.919Z,99812.59
2024-02-12T16:50:09.106Z,99814.88
2024-02-12T16:52:36.577Z,99821.06
2024-02-12T16:55:04.438Z,99822.59
2024-02-12T16:57:31.174Z,99820.53
2024-02-12T16:59:58.430Z,99828.28
2024-02-12T17:02:27.161Z,99836.09
2024-02-12T17:04:55.940Z,99841.13
2024-02-12T17:07:24.899Z,99844.13
2024-02-12T17:09:51.456Z,99848.03
2024-02-12T17:12:20.151Z,99847.16
2024-02-12T17:14:47.180Z,99850.25
2024-02-12T17:17:15.117Z,99855.28
2024-02-12T17:19:42.067Z,99861.16
2024-02-12T17:22:10.773Z,99854.41
2024-02-12T17:24:37.346Z,99855.66
2024-02-12T17:27:04.891Z,99862.16
2024-02-12T17:29:31.459Z,99864.91
2024-02-12T17:31:58.650Z,99867.22
2024-02-12T17:34:26.773Z,99877.41
2024-02-12T17:36:53.411Z,99872.72
2024-02-12T17:39:20.371Z,99880.16
2024-02-12T17:41:46.989Z,99889.81
2024-02-12T17:44:14.889Z,99893.34
2024-02-12T17:46:41.783Z,99897.25
2024-02-12T17:49:08.768Z,99900.34
2024-02-12T17:51:35.387Z,99909.28
2024-02-12T17:54:01.847Z,99898.66
2024-02-12T17:56:28.423Z,99909.38
2024-02-12T17:58:57.876Z,99911.66
2024-02-12T18:01:26.519Z,99912.03
2024-02-12T18:03:54.610Z,99915.47
2024-02-12T18:06:22.421Z,99922.50
2024-02-12T18:08:49.649Z,99915.47
2024-02-12T18:11:16.262Z,99924.38
2024-02-12T18:13:42.769Z,99921.66
2024-02-12T18:16:09.672Z,99928.63
2024-02-12T18:18:37.317Z,99925.78
2024-02-12T18:21:04.529Z,99929.28
2024-02-12T18:23:31.465Z,99930.00
2024-02-12T18:26:00.875Z,99931.94
2024-02-12T18:28:27.670Z,99939.78
2024-02-12T18:30:54.214Z,99937.59
2024-02-12T18:33:20.831Z,99936.81
2024-02-12T18:35:48.186Z,99937.09
2024-02-12T18:38:14.792Z,99937.47
2024-02-12T18:40:41.898Z,99944.09
2024-02-12T18:43:08.440Z,99953.06
2024-02-12T18:45:35.228Z,99951.13
2024-02-12T18:48:02.681Z,99955.13
2024-02-12T18:50:30.139Z,99962.94
2024-02-12T18:52:56.854Z,99960.66
2024-02-12T18:55:23.377Z,99960.72
2024-02-12T18:57:49.900Z,99963.91
2024-02-12T19:00:17.114Z,99960.09
2024-02-12T19:02:44.595Z,99976.56
2024-02-12T19:05:11.542Z,99997.97
2024-02-12T19:07:38.899Z,99987.66
2024-02-12T19:10:07.049Z,99992.25
2024-02-12T19:12:37.183Z,99988.38
2024-02-12T19:15:04.466Z,100000.06
2024-02-12T19:17:31.057Z,99985.66
2024-02-12T19:19:57.572Z,99988.78
2024-02-12T19:22:24.142Z,99995.50
2024-02-12T19:24:50.664Z,100015.44
2024-02-12T19:27:17.983Z,100012.69
2024-02-12T19:29:46.087Z,100018.56
2024-02-12T19:32:13.460Z,100013.56
2024-02-12T19:34:40.177Z,100027.66
2024-02-12T19:37:06.828Z,100019.00
2024-02-12T19:39:36.391Z,100026.00
2024-02-12T19:42:05.397Z,100037.88
2024-02-12T19:44:32.049Z,100046.41
2024-02-12T19:46:59.432Z,100050.22
2024-02-12T19:49:25.901Z,100046.69
2024-02-12T19:51:52.344Z,100050.56
2024-02-12T19:54:20.313Z,100056.03
2024-02-12T19:56:46.898Z,100061.84
2024-02-12T19:59:13.538Z,100064.94
2024-02-12T20:01:40.494Z,100067.47
2024-02-12T20:04:08.122Z,100071.00
2024-02-12T20:06:34.814Z,100079.22
2024-02-12T20:09:01.994Z,100079.63
2024-02-12T20:11:30.021Z,100078.66
2024-02-12T20:13:56.617Z,100079.88
2024-02-12T20:16:23.240Z,100091.00
2024-02-12T20:18:50.985Z,100099.44
2024-02-12T20:21:17.637Z,100106.84
2024-02-12T20:23:44.178Z,100105.34
2024-02-12T20:26:10.683Z,100104.78
2024-02-12T20:28:37.245Z,100109.56
2024-02-12T20:31:03.759Z,100115.38
2024-02-12T20:33:33.339Z,100120.00
2024-02-12T20:36:01.227Z,100124.47
2024-02-12T20:38:27.676Z,100127.19
2024-02-12T20:40:54.156Z,100132.31
2024-02-12T20:43:20.672Z,100128.53
2024-02-12T20:45:47.307Z,100131.47
2024-02-12T20:48:14.053Z,100132.59
2024-02-12T20:50:41.531Z,100143.44
2024-02-12T20:53:09.394Z,100143.22
2024-02-12T20:55:36.939Z,100141.19
2024-02-12T20:58:04.978Z,100148.56
2024-02-12T21:00:31.718Z,100146.56
2024-02-12T21:02:58.295Z,100154.38
2024-02-12T21:05:24.880Z,100154.28
2024-02-12T21:07:52.277Z,100159.97
2024-02-12T21:10:18.741Z,100155.22
2024-02-12T21:12:45.744Z,100164.56
2024-02-12T21:15:12.756Z,100165.25
2024-02-12T21:17:39.458Z,100168.22
2024-02-12T21:20:07.908Z,100168.22
2024-02-12T21:22:34.726Z,100170.38
2024-02-12T21:25:02.348Z,100175.06
2024-02-12T21:27:28.811Z,100168.47
2024-02-12T21:29:55.298Z,100172.22
2024-02-12T21:32:23.071Z,100176.00
2024-02-12T21:34:49.690Z,100176.34
2024-02-12T21:37:18.568Z,100176.94
2024-02-12T21:39:49.254Z,100180.31
2024-02-12T21:42:25.549Z,100184.09
2024-02-12T21:44:54.532Z,100180.59
2024-02-12T21:47:22.169Z,100181.25
2024-02-12T21:49:48.958Z,100193.28
2024-02-12T21:52:17.334Z,100188.88
2024-02-12T21:54:47.598Z,100201.25
2024-02-12T21:57:14.066Z,100203.88
2024-02-12T21:59:41.049Z,100205.91
2024-02-12T22:02:09.203Z,100204.66
2024-02-12T22:04:36.706Z,100212.50
2024-02-12T22:07:03.813Z,100208.31
2024-02-12T22:09:30.454Z,100220.31
2024-02-12T22:11:57.397Z,100218.19
2024-02-12T22:14:23.992Z,100220.44
2024-02-12T22:16:50.533Z,100225.13
2024-02-12T22:19:17.360Z,100222.97
2024-02-12T22:21:44.554Z,100228.97
2024-02-12T22:24:11.075Z,100226.81
2024-02-12T22:26:37.846Z,100235.78
2024-02-12T22:29:04.355Z,100237.25
2024-02-12T22:31:31.523Z,100241.03
2024-02-12T22:33:58.271Z,100241.03
2024-02-12T22:36:24.795Z,100248.03
2024-02-12T22:38:51.329Z,100245.56
2024-02-12T22:41:18.028Z,100252.84
2024-02-12T22:43:44.544Z,100258.97
2024-02-12T22:46:10.948Z,100262.03
2024-02-12T22:48:40.436Z,100275.53
2024-02-12T22:51:06.945Z,100283.38
2024-02-12T22:53:34.890Z,100286.31
2024-02-12T22:56:01.644Z,100283.81
2024-02-12T22:58:28.132Z,100293.13
2024-02-12T23:00:56.744Z,100295.19
2024-02-12T23:03:24.739Z,100304.59
2024-02-12T23:05:51.421Z,100310.03
2024-02-12T23:08:19.549Z,100311.06
2024-02-12T23:10:46.444Z,100310.94
2024-02-12T23:13:13.517Z,100312.16
2024-02-12T23:15:40.984Z,100312.03
2024-02-12T23:18:11.342Z,100317.06
2024-02-12T23:20:38.633Z,100325.44
2024-02-12T23:23:05.723Z,100321.78
2024-02-12T23:25:33.791Z,100325.78
2024-02-12T23:28:02.481Z,100342.47
2024-02-12T23:30:29.725Z,100344.03
2024-02-12T23:32:56.592Z,100342.00
2024-02-12T23:35:24.194Z,100343.56
2024-02-12T23:37:50.656Z,100342.78
2024-02-12T23:40:17.606Z,100348.56
2024-02-12T23:42:45.173Z,100347.66
2024-02-12T23:45:15.607Z,100348.13
2024-02-12T23:47:42.912Z,100356.84
2024-02-12T23:50:13.047Z,100361.88
2024-02-12T23:52:40.856Z,100359.13
2024-02-12T23:55:10.792Z,100367.97
2024-02-12T23:57:39.848Z,100367.66
